Flight Track Log - Related Links

Times and Time Zones

All times are in EDT time to prevent confusion due to time zone crossing. See the AMF1695 flight status page for this flight to view local times or setup timezone preferences in your user account.

Time Position Orientation Groundspeed Altitude Reporting Facility
EDT Latitude Longitude Course Direction KTS MPH feet Rate Location/Type
Fri 09:09:50 PM 40.9947 -98.1461 71° East 154 177 6,500  Level Minneapolis Center
Fri 09:10:52 PM 41.0050 -98.0869 77° East 161 185 7,400 919 Climbing Minneapolis Center
Fri 09:11:54 PM 41.0097 -98.0253 84° East 167 192 8,400 726 Climbing Minneapolis Center
Fri 09:12:56 PM 41.0139 -97.9581 85° East 178 205 8,900 290 Climbing Minneapolis Center
Fri 09:13:58 PM 41.0219 -97.8803 82° East 203 234 9,000  Climbing Minneapolis Center
Fri 09:15:00 PM 41.0339 -97.7894 80° East 210 242 8,900 -48 Descending Minneapolis Center
Fri 09:16:02 PM 41.0439 -97.7158 80° East 205 236 8,900 48 Level Minneapolis Center
Fri 09:17:04 PM 41.0578 -97.6447 75° East 201 231 9,000 50 Climbing Minneapolis Center
Fri 09:18:03 PM 41.0467 -97.5692 101° East 205 236 9,000  Level Minneapolis Center
Fri 09:18:58 PM 41.0517 -97.5025 84° East 206 237 9,000 47 Level Minneapolis Center
Fri 09:20:11 PM 41.0592 -97.4081 84° East 207 238 9,100  Climbing Minneapolis Center
Fri 09:21:25 PM 41.0875 -97.3233 66° East 205 236 9,000 -50 Descending Minneapolis Center
Fri 09:22:12 PM 41.0739 -97.2547 105° East 207 238 9,000  Level Minneapolis Center
Fri 09:23:19 PM 41.0839 -97.1711 81° East 207 238 9,000  Level Minneapolis Center
Fri 09:24:08 PM 41.0911 -97.1122 81° East 202 232 9,000  Level Minneapolis Center
Fri 09:24:43 PM 41.1094 -97.0714 59° Northeast 197 227 9,000  Level Minneapolis Center
Fri 09:25:45 PM 41.1022 -96.9975 97° East 198 228 9,000  Level Minneapolis Center
Fri 09:26:21 PM 41.0883 -96.9497 111° Southeast 212 244 9,000  Level Minneapolis Center
Fri 09:27:22 PM 41.0900 -96.8719 88° East 209 241 9,000  Level Minneapolis Center
Fri 09:28:16 PM 41.0964 -96.8022 83° East 214 246 9,000 -67 Level Minneapolis Center
Fri 09:28:51 PM 41.1092 -96.7658 65° Northeast 210 242 8,900  Descending Minneapolis Center
Fri 09:29:52 PM 41.1069 -96.6867 92° East 214 246 9,000  Climbing Minneapolis Center
Fri 09:31:12 PM 41.0997 -96.5725 95° East 211 243 8,900 -175 Descending Minneapolis Center
Fri 09:32:09 PM 41.1100 -96.4983 80° East 219 252 8,600 -407 Descending Minneapolis Center
Fri 09:33:10 PM 41.1147 -96.4161 86° East 223 257 8,100 -585 Descending Minneapolis Center
Fri 09:34:12 PM 41.1286 -96.3336 77° East 228 262 7,400 -726 Descending Minneapolis Center
Fri 09:35:14 PM 41.1453 -96.2561 74° East 224 258 6,600 -780 Descending Minneapolis Center
Fri 09:36:15 PM 41.1625 -96.1731 75° East 214 246 5,800 -738 Descending Minneapolis Center
Fri 09:37:16 PM 41.1831 -96.0986 70° East 216 249 5,100 -689 Descending Minneapolis Center
Fri 09:38:17 PM 41.2033 -96.0244 70° East 215 247 4,400 -793 Descending Minneapolis Center
Fri 09:39:17 PM 41.2197 -95.9558 72° East 182 209 3,500 -835 Descending Minneapolis Center
Fri 09:40:12 PM 41.2392 -95.9039 64° Northeast 158 182 2,800 -887 Descending Minneapolis Center
Fri 09:41:12 PM 41.2667 -95.8731 40° Northeast 116 133 1,800 -658 Descending Minneapolis Center
Fri 09:42:38 PM 41.3006 -95.8947 334° Northwest 121 139 1,200 -419 Descending Minneapolis Center
Fri 09:44:00 PM 41.3000 -95.8833 323° Northwest  Level FlightAware Approximate

Login

Don't have an account? Register now (free) for customized features, flight alerts, and more!